Time;durP1;ratioP1;P1;durP2;ratioP2;P2;SDS_P1;SDS_P2;PMS_P1;PMS_P2;Temp;Humidity;BMP_temperature;BMP_pressure;BME280_temperature;BME280_humidity;BME280_pressure;Samples;Min_cycle;Max_cycle;Signal;HPM_P1;HPM_P2
2023/06/09 00:00:11;;;;;;;6.80;6.10;;;16.10;99.90;;;;;;4993801;28;21228;-65
2023/06/09 00:02:40;;;;;;;6.90;6.17;;;16.10;99.90;;;;;;4987174;28;20500;-64
2023/06/09 00:05:09;;;;;;;7.87;7.07;;;16.00;99.90;;;;;;4994122;28;21408;-65
2023/06/09 00:07:37;;;;;;;7.60;6.90;;;16.00;99.90;;;;;;4987818;28;20523;-65
2023/06/09 00:10:06;;;;;;;7.33;6.30;;;15.90;99.90;;;;;;4994309;28;20479;-66
2023/06/09 00:12:36;;;;;;;6.90;6.30;;;15.90;99.90;;;;;;4998779;28;20603;-64
2023/06/09 00:15:04;;;;;;;9.27;7.93;;;15.90;99.90;;;;;;4999855;28;20671;-67
2023/06/09 00:17:33;;;;;;;7.60;6.70;;;15.80;99.90;;;;;;4995237;28;20469;-67
2023/06/09 00:20:03;;;;;;;11.20;7.27;;;15.80;99.90;;;;;;4995847;28;20482;-64
2023/06/09 00:22:32;;;;;;;9.13;7.67;;;15.80;99.90;;;;;;4994567;28;20516;-65
2023/06/09 00:25:00;;;;;;;7.33;6.63;;;15.70;99.90;;;;;;4993656;28;20559;-65
2023/06/09 00:27:29;;;;;;;8.80;7.20;;;15.70;99.90;;;;;;4997787;28;20518;-66
2023/06/09 00:29:57;;;;;;;8.10;6.63;;;15.60;99.90;;;;;;4995997;28;20471;-66
2023/06/09 00:32:27;;;;;;;7.87;6.90;;;15.60;99.90;;;;;;4994316;28;20603;-64
2023/06/09 00:34:55;;;;;;;10.17;7.90;;;15.60;99.90;;;;;;5000461;28;20472;-65
2023/06/09 00:37:23;;;;;;;8.27;7.57;;;15.60;99.90;;;;;;4997663;28;20480;-64
2023/06/09 00:39:54;;;;;;;7.77;7.07;;;15.50;99.90;;;;;;4998379;28;20477;-68
2023/06/09 00:42:22;;;;;;;8.10;7.30;;;15.50;99.90;;;;;;4988598;28;20658;-64
2023/06/09 00:44:50;;;;;;;8.90;7.00;;;15.40;99.90;;;;;;5013426;28;20528;-67
2023/06/09 00:47:18;;;;;;;7.73;7.03;;;15.30;99.90;;;;;;5020186;28;20484;-65
2023/06/09 00:49:47;;;;;;;9.23;7.33;;;15.30;99.90;;;;;;5010925;28;20476;-65
2023/06/09 00:52:16;;;;;;;7.90;7.20;;;15.30;99.90;;;;;;5011181;28;20539;-66
2023/06/09 00:54:44;;;;;;;8.77;7.70;;;15.20;99.90;;;;;;5003272;28;20475;-67
2023/06/09 00:57:14;;;;;;;9.33;7.87;;;15.20;99.90;;;;;;5014624;28;20467;-67
2023/06/09 00:59:42;;;;;;;11.13;8.40;;;15.10;99.90;;;;;;5008392;28;20532;-67
2023/06/09 01:02:12;;;;;;;8.47;7.57;;;15.20;99.90;;;;;;5006328;28;20511;-64
2023/06/09 01:04:49;;;;;;;10.10;7.43;;;15.10;99.90;;;;;;5001326;28;21011;-64
2023/06/09 01:07:28;;;;;;;10.10;7.70;;;15.10;99.90;;;;;;4996122;28;20550;-66
2023/06/09 01:10:02;;;;;;;7.97;7.23;;;15.00;99.90;;;;;;4997095;28;20507;-65
2023/06/09 01:12:42;;;;;;;9.53;7.23;;;15.00;99.90;;;;;;4997364;28;20575;-64
2023/06/09 01:15:13;;;;;;;8.93;7.80;;;14.90;99.90;;;;;;4999933;28;20480;-66
2023/06/09 01:17:43;;;;;;;9.40;7.50;;;14.90;99.90;;;;;;5001307;28;20498;-68
2023/06/09 01:20:12;;;;;;;7.47;6.77;;;14.90;99.90;;;;;;4999322;28;20482;-65
2023/06/09 01:22:49;;;;;;;9.03;8.10;;;14.90;99.90;;;;;;4993219;28;21068;-65
2023/06/09 01:25:35;;;;;;;8.17;7.30;;;14.90;99.90;;;;;;4995524;28;20559;-64
2023/06/09 01:28:06;;;;;;;8.03;7.23;;;14.90;99.90;;;;;;4998653;28;20866;-67
2023/06/09 01:30:36;;;;;;;7.90;7.10;;;14.90;99.90;;;;;;5000391;28;21228;-66
2023/06/09 01:33:08;;;;;;;7.70;6.90;;;14.90;99.90;;;;;;4999252;28;20901;-64
2023/06/09 01:35:37;;;;;;;9.53;7.50;;;14.80;99.90;;;;;;4997590;28;21037;-65
2023/06/09 01:38:06;;;;;;;8.30;7.13;;;14.80;99.90;;;;;;4995331;28;20473;-64
2023/06/09 01:40:36;;;;;;;8.97;6.83;;;14.70;99.90;;;;;;4995143;28;20473;-67
2023/06/09 01:43:06;;;;;;;7.73;6.93;;;14.70;99.90;;;;;;4996340;28;20572;-66
2023/06/09 01:45:35;;;;;;;9.07;7.23;;;14.60;99.90;;;;;;4999054;28;21929;-64
2023/06/09 01:48:09;;;;;;;11.30;8.07;;;14.60;99.90;;;;;;4998529;28;21092;-71
2023/06/09 01:50:43;;;;;;;8.77;7.30;;;14.60;99.90;;;;;;4998074;28;20483;-64
2023/06/09 01:53:15;;;;;;;8.73;7.43;;;14.60;99.90;;;;;;4998383;28;21497;-65
2023/06/09 01:55:50;;;;;;;8.73;7.93;;;14.50;99.90;;;;;;4985377;28;20476;-65
2023/06/09 01:58:23;;;;;;;8.20;7.37;;;14.50;99.90;;;;;;5001509;28;21051;-64
2023/06/09 02:00:53;;;;;;;8.80;7.47;;;14.50;99.90;;;;;;4998542;28;20509;-68
2023/06/09 02:03:22;;;;;;;9.00;8.20;;;14.40;99.90;;;;;;4997121;28;21078;-65
2023/06/09 02:05:54;;;;;;;9.93;7.67;;;14.40;99.90;;;;;;4994302;28;20468;-64
2023/06/09 02:08:22;;;;;;;9.23;7.70;;;14.30;99.90;;;;;;4999596;28;20494;-64
2023/06/09 02:10:51;;;;;;;10.00;8.23;;;14.30;99.90;;;;;;4994819;28;20507;-64
2023/06/09 02:13:20;;;;;;;8.13;7.33;;;14.30;99.90;;;;;;4997172;28;20523;-65
2023/06/09 02:15:49;;;;;;;8.33;7.40;;;14.30;99.90;;;;;;5000163;28;20987;-64
2023/06/09 02:18:24;;;;;;;8.53;7.73;;;14.30;99.90;;;;;;4999792;28;20468;-64
2023/06/09 02:20:53;;;;;;;8.60;7.60;;;14.20;99.90;;;;;;5001566;28;20534;-64
2023/06/09 02:23:22;;;;;;;8.47;7.67;;;14.10;99.90;;;;;;4994068;28;20523;-69
2023/06/09 02:25:52;;;;;;;8.63;7.70;;;14.10;99.90;;;;;;4995458;28;20573;-64
2023/06/09 02:28:20;;;;;;;8.27;7.47;;;14.10;99.90;;;;;;4996375;28;20576;-66
2023/06/09 02:30:48;;;;;;;10.23;8.30;;;14.10;99.90;;;;;;4993784;28;20845;-64
2023/06/09 02:33:18;;;;;;;11.00;8.53;;;14.10;99.90;;;;;;4994142;28;20886;-64
2023/06/09 02:35:46;;;;;;;9.53;7.73;;;14.10;99.90;;;;;;4988977;28;20480;-64
2023/06/09 02:38:14;;;;;;;9.10;7.97;;;14.00;99.90;;;;;;4990633;28;20762;-67
2023/06/09 02:40:44;;;;;;;9.47;7.07;;;14.00;99.90;;;;;;4990032;28;20465;-63
2023/06/09 02:43:14;;;;;;;8.77;7.63;;;14.00;99.90;;;;;;4995538;28;20900;-63
2023/06/09 02:45:43;;;;;;;10.00;8.13;;;13.90;99.90;;;;;;4992284;28;21138;-64
2023/06/09 02:48:11;;;;;;;8.50;7.60;;;14.00;99.90;;;;;;4999566;28;21154;-64
2023/06/09 02:50:39;;;;;;;9.67;8.57;;;14.00;99.90;;;;;;4991191;28;20472;-64
2023/06/09 02:53:09;;;;;;;10.60;8.07;;;13.90;99.90;;;;;;4995772;28;20609;-64
2023/06/09 02:55:38;;;;;;;10.40;7.83;;;13.90;99.90;;;;;;4993114;28;20469;-64
2023/06/09 02:58:06;;;;;;;12.93;7.83;;;13.80;99.90;;;;;;4994059;28;20496;-64
2023/06/09 03:00:38;;;;;;;10.10;8.60;;;13.80;99.90;;;;;;4995104;28;20913;-63
2023/06/09 03:03:06;;;;;;;10.27;8.67;;;13.80;99.90;;;;;;4996431;28;20484;-64
2023/06/09 03:05:40;;;;;;;9.00;8.10;;;13.80;99.90;;;;;;4992177;28;20469;-64
2023/06/09 03:08:26;;;;;;;9.33;8.27;;;13.80;99.90;;;;;;4995934;28;20502;-65
2023/06/09 03:10:54;;;;;;;9.57;7.23;;;13.80;99.90;;;;;;4994949;28;20472;-63
2023/06/09 03:13:22;;;;;;;12.73;8.50;;;13.80;99.90;;;;;;5010776;28;20485;-67
2023/06/09 03:15:52;;;;;;;10.17;8.73;;;13.80;99.90;;;;;;5006962;28;20538;-64
2023/06/09 03:18:20;;;;;;;8.40;7.50;;;13.80;99.90;;;;;;4996313;28;20500;-64
2023/06/09 03:20:50;;;;;;;10.27;9.03;;;13.80;99.90;;;;;;4999033;28;20472;-64
2023/06/09 03:23:21;;;;;;;9.33;8.07;;;13.80;99.90;;;;;;5000394;28;20507;-65
2023/06/09 03:25:49;;;;;;;9.43;8.43;;;13.70;99.90;;;;;;4995313;28;22216;-64
2023/06/09 03:28:17;;;;;;;10.53;8.10;;;13.70;99.90;;;;;;4996522;28;20949;-64
2023/06/09 03:30:46;;;;;;;11.30;8.37;;;13.70;99.90;;;;;;4993625;28;20553;-63
2023/06/09 03:33:18;;;;;;;9.27;8.27;;;13.70;99.90;;;;;;4998224;28;20488;-63
2023/06/09 03:35:48;;;;;;;11.33;8.40;;;13.70;99.90;;;;;;4996962;28;20539;-65
2023/06/09 03:38:16;;;;;;;10.73;8.30;;;13.80;99.90;;;;;;4994667;28;20555;-64
2023/06/09 03:40:45;;;;;;;9.57;7.70;;;13.80;99.90;;;;;;4987864;28;20915;-64
2023/06/09 03:43:13;;;;;;;9.27;7.93;;;13.80;99.90;;;;;;4995356;28;20497;-64
2023/06/09 03:45:41;;;;;;;8.43;7.60;;;13.80;99.90;;;;;;4996247;28;21048;-63
2023/06/09 03:48:08;;;;;;;10.70;7.57;;;13.80;99.90;;;;;;4996684;28;21625;-64
2023/06/09 03:50:40;;;;;;;9.37;8.07;;;13.80;99.90;;;;;;4993940;28;20571;-65
2023/06/09 03:53:08;;;;;;;10.20;8.67;;;13.90;99.90;;;;;;4996694;28;20512;-65
2023/06/09 03:55:38;;;;;;;9.93;7.93;;;13.80;99.90;;;;;;4989790;28;20493;-63
2023/06/09 03:58:06;;;;;;;9.53;8.40;;;13.80;99.90;;;;;;4995247;28;20503;-64
2023/06/09 04:00:34;;;;;;;10.03;8.07;;;13.80;99.90;;;;;;4993139;28;20476;-63
2023/06/09 04:03:02;;;;;;;10.00;7.70;;;13.80;99.90;;;;;;4992022;28;20542;-64
2023/06/09 04:05:30;;;;;;;8.63;7.73;;;13.90;99.90;;;;;;4994857;28;20476;-63
2023/06/09 04:08:02;;;;;;;11.40;8.10;;;13.90;99.90;;;;;;4994621;28;20504;-65
2023/06/09 04:10:30;;;;;;;10.07;7.90;;;13.90;99.90;;;;;;4992739;28;20470;-64
2023/06/09 04:12:58;;;;;;;9.13;7.67;;;14.00;99.90;;;;;;4994791;28;21189;-64
2023/06/09 04:15:26;;;;;;;8.00;7.10;;;14.00;99.90;;;;;;4995394;28;20547;-68
2023/06/09 04:17:54;;;;;;;9.77;8.23;;;14.00;99.90;;;;;;4989717;28;20482;-68
2023/06/09 04:20:24;;;;;;;8.40;7.33;;;14.10;99.90;;;;;;4996653;28;20491;-64
2023/06/09 04:22:53;;;;;;;11.03;7.40;;;14.10;99.90;;;;;;4992157;28;20616;-67
2023/06/09 04:25:25;;;;;;;7.47;6.67;;;14.10;99.90;;;;;;4995817;28;20472;-64
2023/06/09 04:27:54;;;;;;;11.57;7.77;;;14.20;99.90;;;;;;4991791;28;20874;-65
2023/06/09 04:30:25;;;;;;;11.10;8.10;;;14.20;99.90;;;;;;4994936;28;20558;-65
2023/06/09 04:32:53;;;;;;;8.30;7.50;;;14.20;99.90;;;;;;4986206;28;21104;-64
2023/06/09 04:35:22;;;;;;;9.30;7.73;;;14.20;99.90;;;;;;4996352;28;20903;-64
2023/06/09 04:37:50;;;;;;;8.43;7.63;;;14.30;99.90;;;;;;4994328;28;20515;-64
2023/06/09 04:40:21;;;;;;;11.33;7.47;;;14.30;99.90;;;;;;4986037;28;20480;-65
2023/06/09 04:42:52;;;;;;;10.20;7.87;;;14.30;99.90;;;;;;4986872;28;20590;-64
2023/06/09 04:45:25;;;;;;;11.40;8.07;;;14.40;99.90;;;;;;4987801;28;20468;-65
2023/06/09 04:47:54;;;;;;;12.17;7.47;;;14.40;99.90;;;;;;4993965;28;20500;-64
2023/06/09 04:50:22;;;;;;;9.10;6.63;;;14.50;99.90;;;;;;4990145;28;21113;-66
2023/06/09 04:52:51;;;;;;;12.10;7.23;;;14.50;99.90;;;;;;4994691;28;20572;-64
2023/06/09 04:55:19;;;;;;;7.80;6.97;;;14.60;99.90;;;;;;4985327;28;20508;-65
2023/06/09 04:57:48;;;;;;;9.40;7.20;;;14.60;99.90;;;;;;4991491;28;21058;-65
2023/06/09 05:00:19;;;;;;;7.13;6.37;;;14.70;99.90;;;;;;4981292;28;20468;-64
2023/06/09 05:02:47;;;;;;;8.60;6.53;;;14.80;99.90;;;;;;4992898;28;20495;-63
2023/06/09 05:05:15;;;;;;;9.00;6.70;;;14.80;99.90;;;;;;4988598;28;20557;-63
2023/06/09 05:07:43;;;;;;;7.73;6.57;;;14.80;99.90;;;;;;4994731;28;20472;-64
2023/06/09 05:10:11;;;;;;;8.97;6.57;;;14.90;99.90;;;;;;4994019;28;20502;-64
2023/06/09 05:12:40;;;;;;;12.33;6.87;;;14.90;99.90;;;;;;4993486;28;20511;-64
2023/06/09 05:15:10;;;;;;;10.27;6.83;;;15.00;99.90;;;;;;4987789;28;22072;-65
2023/06/09 05:17:41;;;;;;;9.60;7.30;;;15.00;99.90;;;;;;4988735;28;20555;-66
2023/06/09 05:20:11;;;;;;;6.80;6.10;;;15.10;99.90;;;;;;4987619;28;20461;-65
2023/06/09 05:22:41;;;;;;;7.20;6.30;;;15.10;99.90;;;;;;4979161;28;20487;-67
2023/06/09 05:25:10;;;;;;;7.80;6.37;;;15.10;99.90;;;;;;4986347;28;20969;-64
2023/06/09 05:27:40;;;;;;;10.00;7.00;;;15.20;99.90;;;;;;4990206;28;20473;-66
2023/06/09 05:30:09;;;;;;;9.70;6.67;;;15.30;99.90;;;;;;4990288;28;20774;-69
2023/06/09 05:32:38;;;;;;;7.07;5.70;;;15.40;99.90;;;;;;4993561;28;20503;-64
2023/06/09 05:35:07;;;;;;;7.17;6.00;;;15.50;99.90;;;;;;4979149;28;20548;-67
2023/06/09 05:37:35;;;;;;;7.07;6.37;;;15.50;99.90;;;;;;4977828;28;20593;-67
2023/06/09 05:40:07;;;;;;;6.87;5.73;;;15.60;99.90;;;;;;4986956;28;20970;-64
2023/06/09 05:42:36;;;;;;;9.73;5.70;;;15.60;99.90;;;;;;4999946;28;20998;-67
2023/06/09 05:45:04;;;;;;;8.10;5.80;;;15.70;99.90;;;;;;5009557;28;20469;-65
2023/06/09 05:47:33;;;;;;;6.37;5.80;;;15.80;99.90;;;;;;5002580;28;20477;-66
2023/06/09 05:50:03;;;;;;;7.30;5.97;;;15.80;99.90;;;;;;4995684;28;20546;-65
2023/06/09 05:52:31;;;;;;;6.20;5.60;;;15.90;99.90;;;;;;4990961;28;21032;-64
2023/06/09 05:55:00;;;;;;;10.70;6.27;;;16.00;99.90;;;;;;4988407;28;21072;-65
2023/06/09 05:57:29;;;;;;;7.23;6.50;;;16.10;99.90;;;;;;4996152;28;20512;-64
2023/06/09 05:59:58;;;;;;;7.27;5.97;;;16.20;99.90;;;;;;4992769;28;20518;-66
2023/06/09 06:02:27;;;;;;;7.43;6.10;;;16.40;99.90;;;;;;4993397;28;20493;-65
2023/06/09 06:04:55;;;;;;;6.20;5.33;;;16.40;99.90;;;;;;4992089;28;20464;-66
2023/06/09 06:07:24;;;;;;;8.20;5.33;;;16.50;99.90;;;;;;4992116;28;20503;-65
2023/06/09 06:09:52;;;;;;;8.40;6.27;;;16.50;99.90;;;;;;4994099;28;20495;-65
2023/06/09 06:12:21;;;;;;;7.47;5.33;;;16.60;99.90;;;;;;4998942;28;20582;-64
2023/06/09 06:14:49;;;;;;;6.33;5.40;;;16.60;99.90;;;;;;5000721;28;20669;-65
2023/06/09 06:17:17;;;;;;;7.33;6.10;;;16.70;99.90;;;;;;5000478;28;21102;-64
2023/06/09 06:19:45;;;;;;;6.83;6.03;;;16.80;99.90;;;;;;4995628;28;21049;-65
2023/06/09 06:22:13;;;;;;;8.20;6.30;;;16.90;99.90;;;;;;4990142;28;20491;-65
2023/06/09 06:24:45;;;;;;;6.43;5.67;;;17.00;99.90;;;;;;4997468;28;20491;-65
2023/06/09 06:27:13;;;;;;;8.53;6.00;;;17.10;99.90;;;;;;4993079;28;20575;-68
2023/06/09 06:29:41;;;;;;;6.83;6.10;;;17.20;99.90;;;;;;4992525;28;20524;-64
2023/06/09 06:32:09;;;;;;;7.20;5.43;;;17.30;99.90;;;;;;4994751;28;21059;-65
2023/06/09 06:34:37;;;;;;;6.73;5.23;;;17.40;99.90;;;;;;4998908;28;20476;-65
2023/06/09 06:37:06;;;;;;;6.30;5.70;;;17.40;99.90;;;;;;5001155;28;20465;-65
2023/06/09 06:39:34;;;;;;;6.40;5.80;;;17.50;99.90;;;;;;4989553;28;20492;-66
2023/06/09 06:42:04;;;;;;;6.50;5.17;;;17.60;99.90;;;;;;4990862;28;20488;-65
2023/06/09 06:44:32;;;;;;;8.23;5.67;;;17.70;99.90;;;;;;4986430;28;20472;-67
2023/06/09 06:47:00;;;;;;;8.00;5.47;;;17.80;99.90;;;;;;4992772;28;20849;-67
2023/06/09 06:49:28;;;;;;;5.60;5.10;;;18.00;99.90;;;;;;4994323;28;20492;-65
2023/06/09 06:51:55;;;;;;;6.00;5.40;;;18.00;99.90;;;;;;4988431;28;20579;-67
2023/06/09 06:54:23;;;;;;;6.43;5.50;;;18.10;99.90;;;;;;4991003;28;20496;-67
2023/06/09 06:56:51;;;;;;;5.30;4.80;;;18.20;99.90;;;;;;4994032;28;20564;-65
2023/06/09 06:59:21;;;;;;;6.00;5.17;;;18.30;99.90;;;;;;4996300;28;20558;-65
2023/06/09 07:01:49;;;;;;;6.37;4.90;;;18.40;99.90;;;;;;4991593;28;20582;-66
2023/06/09 07:04:17;;;;;;;6.60;5.03;;;18.50;99.90;;;;;;4989186;28;20551;-66
2023/06/09 07:06:45;;;;;;;5.63;5.00;;;18.60;99.90;;;;;;5007499;28;20493;-66
2023/06/09 07:09:13;;;;;;;7.70;5.53;;;18.70;99.90;;;;;;4990285;28;20472;-65
2023/06/09 07:11:44;;;;;;;6.70;4.90;;;18.70;99.90;;;;;;4994584;28;20588;-65
2023/06/09 07:14:12;;;;;;;5.90;5.30;;;18.90;99.90;;;;;;4998217;28;20499;-65
2023/06/09 07:16:47;;;;;;;6.93;4.77;;;19.00;99.90;;;;;;4996895;28;20481;-63
2023/06/09 07:19:15;;;;;;;6.20;5.30;;;19.10;99.90;;;;;;5000861;28;20472;-66
2023/06/09 07:21:43;;;;;;;6.23;5.17;;;19.20;99.90;;;;;;5001527;28;20480;-64
2023/06/09 07:24:11;;;;;;;8.00;5.13;;;19.30;99.90;;;;;;5007493;28;20495;-64
2023/06/09 07:26:39;;;;;;;6.83;5.30;;;19.40;99.90;;;;;;5009015;28;20480;-64
2023/06/09 07:29:07;;;;;;;9.00;5.30;;;19.40;99.90;;;;;;5012573;28;20508;-66
2023/06/09 07:31:35;;;;;;;6.83;5.70;;;19.50;99.90;;;;;;5008359;28;20495;-65
2023/06/09 07:34:04;;;;;;;7.33;5.50;;;19.60;99.90;;;;;;5016950;28;20916;-65
2023/06/09 07:36:37;;;;;;;7.43;5.67;;;19.80;99.90;;;;;;5003865;28;21065;-65
2023/06/09 07:39:05;;;;;;;7.60;6.40;;;19.90;99.90;;;;;;4999015;28;20742;-65
2023/06/09 07:41:33;;;;;;;7.10;6.10;;;20.00;99.90;;;;;;4996934;28;20687;-66
2023/06/09 07:44:01;;;;;;;5.77;5.27;;;20.10;99.90;;;;;;4997005;28;20523;-64
2023/06/09 07:46:32;;;;;;;6.40;5.80;;;20.20;99.90;;;;;;5000353;28;20552;-66
2023/06/09 07:49:01;;;;;;;6.33;5.73;;;20.40;99.90;;;;;;4999257;28;20533;-64
2023/06/09 07:51:36;;;;;;;7.03;5.67;;;20.50;99.90;;;;;;4993209;28;20550;-65
2023/06/09 07:54:05;;;;;;;7.43;5.70;;;20.50;99.90;;;;;;4992711;28;20629;-65
2023/06/09 07:56:33;;;;;;;7.47;5.80;;;20.70;99.90;;;;;;4997122;28;20539;-65
2023/06/09 07:59:01;;;;;;;8.00;5.40;;;20.70;99.90;;;;;;4995322;28;20465;-64
2023/06/09 08:01:30;;;;;;;6.00;5.17;;;20.80;99.90;;;;;;4994121;28;21011;-65
2023/06/09 08:04:01;;;;;;;7.60;6.23;;;20.90;99.90;;;;;;4991966;28;20511;-65
2023/06/09 08:06:34;;;;;;;6.60;5.83;;;20.90;99.90;;;;;;4995182;28;20476;-64
2023/06/09 08:09:02;;;;;;;5.73;5.23;;;21.00;99.90;;;;;;4992161;28;21669;-65
2023/06/09 08:11:30;;;;;;;6.43;5.33;;;21.00;99.90;;;;;;4994806;28;21060;-65
2023/06/09 08:13:58;;;;;;;7.07;5.73;;;21.10;99.90;;;;;;4998043;28;20575;-64
2023/06/09 08:16:27;;;;;;;6.07;5.30;;;21.20;99.90;;;;;;5003465;28;20483;-65
2023/06/09 08:18:55;;;;;;;5.93;5.43;;;21.30;99.90;;;;;;5014247;28;20504;-65
2023/06/09 08:21:23;;;;;;;6.80;5.63;;;21.30;99.90;;;;;;5002795;28;20571;-65
2023/06/09 08:23:52;;;;;;;6.00;5.10;;;21.40;99.90;;;;;;4999890;28;20487;-68
2023/06/09 08:26:20;;;;;;;7.67;5.50;;;21.60;99.90;;;;;;4995834;28;23285;-65
2023/06/09 08:28:48;;;;;;;8.13;6.07;;;21.60;99.90;;;;;;4998430;28;20580;-66
2023/06/09 08:31:17;;;;;;;5.80;5.20;;;21.70;99.90;;;;;;4996296;28;20554;-65
2023/06/09 08:33:47;;;;;;;6.00;5.33;;;21.80;99.90;;;;;;5003638;28;20512;-66
2023/06/09 08:36:15;;;;;;;6.20;5.60;;;21.90;99.90;;;;;;5002727;28;20476;-67
2023/06/09 08:38:43;;;;;;;6.20;4.67;;;22.00;99.90;;;;;;5002048;28;20590;-64
2023/06/09 08:41:15;;;;;;;6.27;5.63;;;22.00;99.90;;;;;;4996563;28;20587;-64
2023/06/09 08:43:43;;;;;;;5.27;4.77;;;22.10;99.90;;;;;;4997964;28;20524;-65
2023/06/09 08:46:12;;;;;;;5.00;4.50;;;22.20;99.90;;;;;;4995634;28;20558;-65
2023/06/09 08:48:49;;;;;;;5.30;4.80;;;22.30;99.90;;;;;;4998520;28;20477;-64
2023/06/09 08:51:17;;;;;;;6.13;5.60;;;22.40;99.90;;;;;;4998913;28;20489;-65
2023/06/09 08:53:45;;;;;;;6.83;5.57;;;22.50;99.90;;;;;;4995365;28;20587;-64
2023/06/09 08:56:15;;;;;;;5.73;5.17;;;22.50;99.90;;;;;;4996613;28;20575;-65
2023/06/09 08:58:43;;;;;;;5.40;4.90;;;22.60;99.90;;;;;;5002860;28;20472;-65
2023/06/09 09:01:12;;;;;;;6.73;5.40;;;22.70;99.90;;;;;;4991206;28;20527;-65
2023/06/09 09:03:40;;;;;;;6.53;5.63;;;22.70;99.90;;;;;;4993378;28;20579;-64
2023/06/09 09:06:08;;;;;;;5.20;4.77;;;22.80;99.90;;;;;;4991391;28;20464;-64
2023/06/09 09:08:36;;;;;;;5.87;5.27;;;22.80;99.90;;;;;;4992478;28;21044;-64
2023/06/09 09:11:05;;;;;;;6.50;4.77;;;23.00;99.90;;;;;;4989928;28;20583;-64
2023/06/09 09:13:34;;;;;;;5.57;5.07;;;23.00;99.90;;;;;;4992933;28;21350;-65
2023/06/09 09:16:02;;;;;;;5.33;4.90;;;23.10;99.90;;;;;;4994723;28;20487;-67
2023/06/09 09:18:31;;;;;;;5.37;4.83;;;23.20;99.90;;;;;;4993404;28;20911;-64
2023/06/09 09:21:01;;;;;;;5.77;5.20;;;23.20;99.90;;;;;;4994472;28;20602;-65
2023/06/09 09:23:33;;;;;;;7.33;4.70;;;23.30;99.90;;;;;;4987220;28;20492;-65
2023/06/09 09:26:02;;;;;;;4.83;4.37;;;23.30;99.90;;;;;;4993325;28;21522;-64
2023/06/09 09:28:40;;;;;;;5.33;4.83;;;23.40;99.90;;;;;;4993806;28;20469;-65
2023/06/09 09:31:09;;;;;;;5.97;4.60;;;23.50;99.90;;;;;;4993910;28;21010;-65
2023/06/09 09:33:37;;;;;;;6.57;4.93;;;23.50;96.40;;;;;;4993156;28;20488;-65
2023/06/09 09:36:10;;;;;;;6.37;5.40;;;23.60;99.90;;;;;;4991079;28;20565;-65
2023/06/09 09:38:44;;;;;;;6.40;5.37;;;23.70;99.90;;;;;;4998032;28;20481;-66
2023/06/09 09:41:14;;;;;;;5.93;5.33;;;23.80;97.00;;;;;;4992624;28;21354;-66
2023/06/09 09:43:47;;;;;;;6.10;5.50;;;23.80;93.90;;;;;;4988619;28;20500;-64
2023/06/09 09:46:20;;;;;;;6.70;5.20;;;23.90;96.40;;;;;;4990354;28;20468;-64
2023/06/09 09:48:49;;;;;;;6.77;5.10;;;24.00;93.50;;;;;;4993961;28;21031;-65
2023/06/09 09:51:20;;;;;;;4.87;4.47;;;24.00;97.50;;;;;;4992857;28;21009;-65
2023/06/09 09:53:50;;;;;;;5.30;4.73;;;24.00;91.80;;;;;;4992243;28;20498;-67
2023/06/09 09:56:22;;;;;;;5.10;4.70;;;24.10;84.20;;;;;;4994550;28;20560;-67
2023/06/09 09:58:54;;;;;;;7.80;5.40;;;24.20;88.10;;;;;;4992495;28;20552;-66
2023/06/09 10:01:24;;;;;;;5.50;5.00;;;24.20;83.30;;;;;;5003780;28;20567;-66
2023/06/09 10:03:54;;;;;;;5.37;4.50;;;24.30;86.50;;;;;;5014727;28;20492;-71
2023/06/09 10:06:28;;;;;;;6.00;5.40;;;24.40;85.90;;;;;;5012374;28;20543;-66
2023/06/09 10:08:58;;;;;;;5.57;4.67;;;24.40;73.60;;;;;;5008854;28;20947;-66
2023/06/09 10:11:30;;;;;;;4.83;4.43;;;24.40;73.80;;;;;;4999753;28;20501;-66
2023/06/09 10:14:00;;;;;;;4.50;4.10;;;24.50;70.40;;;;;;5002462;28;20481;-66
2023/06/09 10:16:29;;;;;;;7.73;5.00;;;24.60;71.90;;;;;;5010210;28;20476;-66
2023/06/09 10:18:59;;;;;;;4.90;4.50;;;24.60;71.20;;;;;;5014510;28;21029;-66
2023/06/09 10:21:28;;;;;;;5.53;4.87;;;24.60;76.30;;;;;;5010435;28;20499;-67
2023/06/09 10:23:57;;;;;;;5.60;4.97;;;24.70;76.00;;;;;;5011769;28;20488;-66
2023/06/09 10:26:25;;;;;;;5.20;4.70;;;24.80;82.20;;;;;;5010640;28;20510;-66
2023/06/09 10:28:53;;;;;;;5.10;4.60;;;24.80;80.60;;;;;;5004782;28;20517;-66
2023/06/09 10:31:24;;;;;;;4.60;4.23;;;25.00;78.40;;;;;;5003496;28;20501;-66
2023/06/09 10:33:54;;;;;;;6.13;5.20;;;25.00;76.60;;;;;;4998743;28;20795;-65
2023/06/09 10:36:22;;;;;;;5.17;4.67;;;25.10;68.00;;;;;;4999055;28;20505;-65
2023/06/09 10:38:53;;;;;;;4.43;4.03;;;25.10;66.30;;;;;;4993102;28;20477;-66
2023/06/09 10:41:38;;;;;;;5.90;4.33;;;25.20;62.60;;;;;;4995684;28;20544;-67
2023/06/09 10:44:26;;;;;;;5.03;4.60;;;25.30;62.60;;;;;;4993856;28;20995;-70
2023/06/09 10:46:56;;;;;;;5.00;4.50;;;25.50;62.70;;;;;;4991659;28;20479;-65
2023/06/09 10:49:39;;;;;;;6.00;4.53;;;25.50;64.10;;;;;;4999464;28;20465;-65
2023/06/09 10:52:10;;;;;;;4.90;4.30;;;25.60;63.10;;;;;;4998831;28;20844;-65
2023/06/09 10:54:38;;;;;;;4.90;4.50;;;25.70;58.80;;;;;;4997998;28;20873;-65
2023/06/09 10:57:27;;;;;;;5.13;4.60;;;25.90;55.40;;;;;;4993025;28;20557;-66
2023/06/09 10:59:56;;;;;;;5.10;4.60;;;25.90;59.20;;;;;;4979729;28;21068;-65
2023/06/09 11:02:24;;;;;;;6.00;5.40;;;26.00;56.90;;;;;;4985338;28;20583;-69
2023/06/09 11:04:53;;;;;;;5.07;4.57;;;26.00;53.50;;;;;;4986105;28;20500;-68
2023/06/09 11:07:23;;;;;;;4.93;4.43;;;26.00;53.00;;;;;;4986818;28;20475;-68
2023/06/09 11:10:34;;;;;;;4.90;4.50;;;26.00;54.90;;;;;;4983717;28;20471;-69
2023/06/09 11:13:21;;;;;;;5.07;4.57;;;26.10;55.30;;;;;;4986181;28;20576;-65
2023/06/09 11:16:10;;;;;;;5.23;4.57;;;26.10;58.80;;;;;;4985073;28;20568;-72
2023/06/09 11:18:39;;;;;;;5.43;4.40;;;26.30;54.80;;;;;;4987930;28;20476;-70
2023/06/09 11:21:09;;;;;;;4.77;4.10;;;26.40;52.70;;;;;;4990338;28;20487;-69
2023/06/09 11:23:55;;;;;;;4.80;4.30;;;26.50;51.10;;;;;;4990556;28;20494;-69
2023/06/09 11:26:25;;;;;;;4.40;4.00;;;26.50;51.70;;;;;;4988399;28;20857;-72
2023/06/09 11:28:53;;;;;;;5.10;4.70;;;26.70;49.70;;;;;;4989709;28;20477;-70
2023/06/09 11:31:23;;;;;;;5.83;4.47;;;26.80;50.40;;;;;;4990800;28;20710;-70
2023/06/09 11:33:53;;;;;;;5.80;4.50;;;26.80;51.20;;;;;;4989778;28;20500;-68
2023/06/09 11:36:27;;;;;;;5.03;4.63;;;26.90;53.10;;;;;;4985255;28;20568;-75
2023/06/09 11:39:06;;;;;;;5.03;4.53;;;27.00;48.50;;;;;;4990394;28;20539;-66
2023/06/09 11:41:34;;;;;;;5.07;4.10;;;27.10;49.60;;;;;;4976420;28;20492;-69
2023/06/09 11:44:03;;;;;;;4.43;4.03;;;27.20;48.90;;;;;;4982354;28;20528;-69
2023/06/09 11:46:34;;;;;;;5.10;4.60;;;27.30;48.50;;;;;;4978804;28;20560;-68
2023/06/09 11:49:08;;;;;;;4.00;3.70;;;27.30;45.00;;;;;;4989911;28;20569;-69
2023/06/09 11:52:02;;;;;;;6.33;4.57;;;27.30;44.10;;;;;;4990336;28;20557;-71
2023/06/09 11:54:49;;;;;;;3.97;3.63;;;27.50;41.50;;;;;;4987241;28;20513;-67
2023/06/09 11:57:17;;;;;;;4.30;3.90;;;27.60;39.60;;;;;;4989862;28;20996;-68
2023/06/09 11:59:46;;;;;;;3.80;3.50;;;27.80;40.10;;;;;;4988057;28;20481;-67
2023/06/09 12:02:20;;;;;;;4.60;4.17;;;27.90;39.50;;;;;;4988051;28;20512;-69
2023/06/09 12:04:49;;;;;;;4.27;3.87;;;28.00;39.00;;;;;;4996692;28;20491;-66
2023/06/09 12:07:18;;;;;;;3.77;3.47;;;28.10;37.80;;;;;;5000178;28;20853;-69
2023/06/09 12:09:55;;;;;;;3.97;3.57;;;28.10;34.60;;;;;;4996080;28;20756;-68
2023/06/09 12:12:24;;;;;;;4.40;4.00;;;28.20;34.90;;;;;;5001069;28;20516;-68
2023/06/09 12:14:52;;;;;;;3.77;3.47;;;28.20;32.60;;;;;;4997875;28;20474;-68
2023/06/09 12:17:21;;;;;;;4.40;4.00;;;28.20;32.40;;;;;;5005307;28;21007;-69
2023/06/09 12:19:51;;;;;;;4.23;3.83;;;28.30;33.30;;;;;;5004457;28;20486;-67
2023/06/09 12:22:19;;;;;;;4.13;3.73;;;28.30;34.90;;;;;;5002807;28;20484;-68
2023/06/09 12:24:47;;;;;;;4.53;4.13;;;28.40;35.00;;;;;;4998529;28;20491;-68
2023/06/09 12:27:15;;;;;;;4.27;3.90;;;28.50;33.50;;;;;;5000576;28;20467;-69
2023/06/09 12:29:43;;;;;;;5.40;4.10;;;28.60;34.60;;;;;;4994284;28;21054;-72
2023/06/09 12:32:24;;;;;;;4.50;3.67;;;28.70;31.80;;;;;;4997005;28;20562;-74
2023/06/09 12:35:00;;;;;;;4.53;4.13;;;28.80;32.50;;;;;;5001075;28;20583;-74
2023/06/09 12:37:30;;;;;;;5.60;3.33;;;28.90;32.90;;;;;;4995279;28;20654;-66
2023/06/09 12:40:04;;;;;;;3.97;3.67;;;29.00;33.20;;;;;;4986485;28;22245;-66
2023/06/09 12:42:46;;;;;;;4.13;3.83;;;29.10;32.70;;;;;;4994471;28;20856;-68
2023/06/09 12:45:15;;;;;;;3.90;3.60;;;29.20;30.10;;;;;;4987714;28;20578;-66
2023/06/09 12:47:49;;;;;;;4.23;3.80;;;29.30;31.10;;;;;;4996751;28;20476;-67
2023/06/09 12:50:17;;;;;;;3.57;3.27;;;29.40;29.50;;;;;;4997753;28;20499;-65
2023/06/09 12:52:45;;;;;;;3.40;3.10;;;29.50;28.90;;;;;;4998055;28;20587;-65
2023/06/09 12:55:16;;;;;;;4.10;3.57;;;29.60;27.70;;;;;;5001459;28;20472;-65
2023/06/09 12:57:44;;;;;;;3.37;3.17;;;29.70;28.20;;;;;;4994229;28;20472;-66
2023/06/09 13:00:13;;;;;;;4.40;3.43;;;29.80;27.20;;;;;;4989702;28;20509;-66